Terminal Aerodrome Forecast
Issued by NWS

Home | Current Version | Previous Version | Graphics & Text | Print | Product List | Glossary On
Versions: 1 2 3 4 5 6 7 8 9 10 11 12 13 14 15 16 17 18 19 20 21 22 23 24 25 26 27 28 29 30 31
000
FTUS43 KABR 191255 AAA
TAFPIR
TAF AMD
KPIR 191255Z 1913/2012 02015KT 6SM -SN OVC040
     FM191700 01014G21KT 1 1/2SM -SN BLSN OVC020
     FM200000 02013G20KT 3/4SM -SN BLSN OVC015
     FM200600 36010KT 1SM -SN OVC008
     FM201100 34010KT 2SM -SN OVC025=

USA.gov is the U.S. government's official web portal to all federal, state and local government web resources and services.